Time;durP1;ratioP1;P1;durP2;ratioP2;P2;SDS_P1;SDS_P2;PMS_P1;PMS_P2;Temp;Humidity;BMP_temperature;BMP_pressure;BME280_temperature;BME280_humidity;BME280_pressure;Samples;Min_cycle;Max_cycle;Signal;HPM_P1;HPM_P2
2024/02/25 00:01:43;;;;;;;40.87;18.60;;;5.70;1.00;;;;;;4403347;28;655934;-75
2024/02/25 00:04:30;;;;;;;37.27;19.00;;;5.80;1.00;;;;;;4425891;28;656460;-75
2024/02/25 00:07:17;;;;;;;37.92;20.40;;;5.80;1.00;;;;;;4403853;28;656131;-73
2024/02/25 00:10:06;;;;;;;35.23;18.77;;;5.90;1.00;;;;;;4330083;28;654917;-74
2024/02/25 00:12:55;;;;;;;51.07;22.50;;;5.70;1.00;;;;;;4307882;28;655444;-73
2024/02/25 00:15:42;;;;;;;50.07;22.67;;;5.70;1.00;;;;;;4334599;28;655011;-73
2024/02/25 00:18:29;;;;;;;42.83;22.13;;;5.70;12.70;;;;;;4360341;28;655751;-75
2024/02/25 00:21:16;;;;;;;49.00;23.33;;;5.70;99.90;;;;;;4418314;28;656586;-75
2024/02/25 00:24:04;;;;;;;42.85;21.17;;;5.60;99.90;;;;;;4396908;28;657119;-75
2024/02/25 00:26:51;;;;;;;42.67;20.50;;;5.70;99.90;;;;;;4418752;28;657363;-76
2024/02/25 00:29:39;;;;;;;36.93;20.47;;;5.70;99.90;;;;;;4402735;28;657263;-75
2024/02/25 00:32:27;;;;;;;40.97;20.67;;;5.70;96.30;;;;;;4412564;28;656210;-76
2024/02/25 00:35:15;;;;;;;46.43;21.77;;;5.80;79.00;;;;;;4398806;28;656772;-76
2024/02/25 00:38:02;;;;;;;50.47;22.70;;;5.80;65.00;;;;;;4418925;28;656842;-75
2024/02/25 00:40:50;;;;;;;50.77;24.23;;;5.80;84.30;;;;;;4426038;28;656776;-75
2024/02/25 00:43:37;;;;;;;50.00;24.50;;;5.80;60.20;;;;;;4428262;28;657213;-75
2024/02/25 00:46:26;;;;;;;50.33;24.30;;;5.80;1.00;;;;;;4421616;28;657229;-76
2024/02/25 00:49:13;;;;;;;52.03;23.30;;;5.80;1.00;;;;;;4405946;28;656051;-76
2024/02/25 00:52:01;;;;;;;43.40;23.17;;;5.90;1.00;;;;;;4411851;28;656092;-76
2024/02/25 00:54:48;;;;;;;43.67;22.73;;;5.90;1.00;;;;;;4404527;28;656125;-75
2024/02/25 00:57:37;;;;;;;49.97;24.13;;;5.90;1.00;;;;;;4415995;28;656495;-76
2024/02/25 01:00:25;;;;;;;46.77;22.43;;;5.80;1.00;;;;;;4403270;28;655970;-76
2024/02/25 01:03:13;;;;;;;46.87;22.67;;;5.90;1.00;;;;;;4420498;28;656195;-75
2024/02/25 01:06:00;;;;;;;38.67;20.70;;;5.90;1.00;;;;;;4400901;28;655575;-75
2024/02/25 01:08:48;;;;;;;40.10;20.97;;;6.00;1.00;;;;;;4410101;28;656060;-74
2024/02/25 01:11:36;;;;;;;42.93;22.20;;;6.00;99.90;;;;;;4428218;28;655656;-76
2024/02/25 01:14:24;;;;;;;37.97;19.60;;;6.10;99.90;;;;;;4399308;28;656560;-76
2024/02/25 01:17:11;;;;;;;37.47;19.63;;;6.10;99.90;;;;;;4427479;28;656714;-76
2024/02/25 01:20:00;;;;;;;37.40;20.03;;;6.10;99.90;;;;;;4404627;28;657125;-76
2024/02/25 01:22:47;;;;;;;35.33;19.07;;;6.10;99.90;;;;;;4401376;28;656775;-74
2024/02/25 01:25:35;;;;;;;39.53;20.10;;;6.10;58.40;;;;;;4426691;28;657107;-76
2024/02/25 01:28:22;;;;;;;33.10;18.00;;;6.00;1.00;;;;;;4420169;28;656742;-74
2024/02/25 01:31:10;;;;;;;36.97;19.43;;;6.10;1.00;;;;;;4433618;28;656155;-77
2024/02/25 01:33:57;;;;;;;34.40;18.67;;;6.00;1.00;;;;;;4426446;28;655692;-77
2024/02/25 01:36:45;;;;;;;33.00;17.57;;;6.10;1.00;;;;;;4400858;28;656109;-77
2024/02/25 01:39:33;;;;;;;34.17;17.50;;;6.00;1.00;;;;;;4412329;28;655822;-75
2024/02/25 01:42:21;;;;;;;34.60;17.27;;;5.90;99.90;;;;;;4418879;28;656805;-76
2024/02/25 01:45:08;;;;;;;29.53;16.47;;;5.80;1.00;;;;;;4403957;28;657155;-76
2024/02/25 01:47:56;;;;;;;31.45;16.48;;;5.70;1.00;;;;;;4425496;28;655623;-75
2024/02/25 01:50:43;;;;;;;31.70;16.50;;;5.60;1.00;;;;;;4401736;28;656365;-76
2024/02/25 01:53:32;;;;;;;29.90;16.80;;;5.50;1.00;;;;;;4422584;28;657066;-76
2024/02/25 01:56:19;;;;;;;33.77;16.90;;;5.40;1.00;;;;;;4405818;28;655769;-77
2024/02/25 01:59:06;;;;;;;35.07;18.53;;;5.40;1.00;;;;;;4431335;28;655712;-77
2024/02/25 02:01:54;;;;;;;39.13;21.50;;;5.30;99.90;;;;;;4406400;28;655402;-76
2024/02/25 02:04:42;;;;;;;42.47;21.27;;;5.60;99.90;;;;;;4411392;28;656657;-76
2024/02/25 02:07:29;;;;;;;36.03;19.30;;;5.70;1.00;;;;;;4400145;28;656823;-76
2024/02/25 02:10:18;;;;;;;41.67;20.53;;;5.70;1.00;;;;;;4418064;28;656199;-76
2024/02/25 02:13:07;;;;;;;37.03;20.50;;;5.60;1.00;;;;;;4394589;28;655836;-76
2024/02/25 02:15:54;;;;;;;40.57;22.47;;;5.50;1.00;;;;;;4402546;28;655529;-76
2024/02/25 02:18:41;;;;;;;40.67;21.77;;;5.50;1.00;;;;;;4418027;28;655624;-76
2024/02/25 02:21:30;;;;;;;43.27;21.80;;;5.50;1.00;;;;;;4390885;28;657225;-76
2024/02/25 02:24:17;;;;;;;38.70;21.97;;;5.40;1.00;;;;;;4424897;28;656339;-74
2024/02/25 02:27:05;;;;;;;44.83;21.93;;;5.30;99.90;;;;;;4426921;28;657350;-75
2024/02/25 02:29:52;;;;;;;41.50;20.40;;;5.20;99.90;;;;;;4399963;28;658216;-74
2024/02/25 02:32:40;;;;;;;43.67;21.10;;;5.40;99.90;;;;;;4421510;28;657700;-75
2024/02/25 02:35:27;;;;;;;46.07;23.70;;;5.20;99.90;;;;;;4424404;28;657506;-74
2024/02/25 02:38:16;;;;;;;48.67;22.33;;;5.10;99.90;;;;;;4416827;28;657585;-75
2024/02/25 02:41:03;;;;;;;52.20;23.43;;;4.90;99.90;;;;;;4400502;28;657196;-74
2024/02/25 02:43:51;;;;;;;55.20;24.17;;;4.80;99.90;;;;;;4419640;28;657759;-75
2024/02/25 02:46:41;;;;;;;56.93;24.87;;;4.60;99.90;;;;;;4402989;28;657933;-75
2024/02/25 02:49:28;;;;;;;63.93;26.60;;;4.50;1.00;;;;;;4403419;28;658315;-73
2024/02/25 02:52:15;;;;;;;58.03;25.88;;;4.30;1.00;;;;;;4422795;28;656937;-75
2024/02/25 02:55:05;;;;;;;66.37;27.73;;;4.20;1.00;;;;;;4397362;28;656366;-74
2024/02/25 02:57:52;;;;;;;56.80;26.87;;;4.10;1.00;;;;;;4405705;28;656916;-75
2024/02/25 03:00:39;;;;;;;62.33;28.70;;;4.00;18.00;;;;;;4395738;28;656965;-74
2024/02/25 03:03:26;;;;;;;61.67;26.77;;;4.00;99.90;;;;;;4401923;28;657919;-74
2024/02/25 03:06:13;;;;;;;60.50;27.30;;;3.90;99.90;;;;;;4396027;28;658331;-73
2024/02/25 03:09:01;;;;;;;57.00;27.10;;;3.80;99.90;;;;;;4420684;28;657816;-75
2024/02/25 03:11:49;;;;;;;62.27;27.30;;;3.70;99.90;;;;;;4389044;28;658535;-74
2024/02/25 03:14:37;;;;;;;58.63;27.23;;;3.80;1.00;;;;;;4421733;28;657883;-75
2024/02/25 03:17:25;;;;;;;64.27;28.13;;;3.80;1.00;;;;;;4405773;28;657113;-75
2024/02/25 03:20:12;;;;;;;57.83;27.93;;;3.80;1.00;;;;;;4438469;28;655601;-75
2024/02/25 03:22:59;;;;;;;55.90;27.60;;;3.80;1.00;;;;;;4403870;28;657780;-75
2024/02/25 03:25:47;;;;;;;58.70;27.87;;;3.70;1.00;;;;;;4422901;28;655957;-74
2024/02/25 03:28:35;;;;;;;58.57;29.07;;;3.80;1.00;;;;;;4405228;28;656926;-74
2024/02/25 03:31:22;;;;;;;60.17;28.17;;;3.70;79.60;;;;;;4399715;28;657138;-74
2024/02/25 03:34:10;;;;;;;54.47;28.60;;;3.70;99.90;;;;;;4420003;28;658550;-75
2024/02/25 03:36:57;;;;;;;63.60;30.45;;;3.80;99.90;;;;;;4399715;28;657728;-74
2024/02/25 03:39:46;;;;;;;76.07;33.97;;;3.80;99.90;;;;;;4427188;28;657656;-75
2024/02/25 03:42:33;;;;;;;89.80;37.93;;;3.70;99.90;;;;;;4405170;28;658222;-74
2024/02/25 03:45:23;;;;;;;76.43;33.60;;;3.70;99.90;;;;;;4415988;28;657550;-74
2024/02/25 03:48:10;;;;;;;92.50;37.87;;;3.70;99.90;;;;;;4398425;28;657866;-75
2024/02/25 03:50:57;;;;;;;73.43;33.80;;;3.70;1.00;;;;;;4402420;28;657651;-74
2024/02/25 03:53:45;;;;;;;71.93;33.67;;;3.70;1.00;;;;;;4420928;28;657776;-75
2024/02/25 03:56:32;;;;;;;74.93;34.17;;;3.70;1.00;;;;;;4412214;28;656257;-75
2024/02/25 03:59:19;;;;;;;79.47;37.23;;;3.70;1.00;;;;;;4393320;28;657299;-75
2024/02/25 04:02:08;;;;;;;101.75;41.97;;;3.70;1.00;;;;;;4422129;28;656034;-75
2024/02/25 04:04:55;;;;;;;87.57;37.33;;;3.70;1.00;;;;;;4299781;28;657182;-74
2024/02/25 04:07:43;;;;;;;82.73;36.03;;;3.70;1.00;;;;;;4292280;28;656393;-74
2024/02/25 04:10:30;;;;;;;82.90;37.47;;;3.60;1.00;;;;;;4321626;28;657287;-74
2024/02/25 04:13:17;;;;;;;82.37;34.47;;;3.60;1.00;;;;;;4345679;28;657087;-74
2024/02/25 04:16:05;;;;;;;76.67;34.77;;;3.60;1.00;;;;;;4424311;28;657417;-75
2024/02/25 04:18:54;;;;;;;97.83;39.67;;;3.40;1.00;;;;;;4417287;28;656711;-74
2024/02/25 04:21:41;;;;;;;86.50;36.97;;;3.30;1.00;;;;;;4428282;28;656332;-75
2024/02/25 04:24:28;;;;;;;74.57;36.43;;;3.30;1.00;;;;;;4397227;28;657053;-75
2024/02/25 04:27:15;;;;;;;77.03;33.73;;;3.40;1.00;;;;;;4408251;28;657317;-75
2024/02/25 04:30:03;;;;;;;72.63;33.27;;;3.40;1.00;;;;;;4395849;28;656372;-75
2024/02/25 04:32:50;;;;;;;85.63;35.30;;;3.50;1.00;;;;;;4408589;28;657937;-76
2024/02/25 04:35:40;;;;;;;78.82;36.35;;;3.60;1.00;;;;;;4400883;28;657008;-74
2024/02/25 04:38:27;;;;;;;78.57;35.10;;;3.70;1.00;;;;;;4413128;28;656637;-75
2024/02/25 04:41:15;;;;;;;74.07;34.77;;;3.60;1.00;;;;;;4424535;28;656654;-75
2024/02/25 04:44:05;;;;;;;73.13;35.10;;;3.70;1.00;;;;;;4420877;28;656963;-75
2024/02/25 04:46:53;;;;;;;78.70;36.40;;;3.80;8.10;;;;;;4406632;28;656654;-75
2024/02/25 04:49:40;;;;;;;84.87;38.47;;;3.80;20.60;;;;;;4416473;28;657897;-75
2024/02/25 04:52:29;;;;;;;81.00;38.23;;;3.80;9.70;;;;;;4408016;28;657328;-74
2024/02/25 04:55:17;;;;;;;75.77;35.77;;;3.80;3.90;;;;;;4420197;28;656352;-75
2024/02/25 04:58:05;;;;;;;80.40;37.23;;;3.70;3.50;;;;;;4385180;28;656654;-75
2024/02/25 05:00:52;;;;;;;83.07;37.80;;;3.70;8.00;;;;;;4408312;28;656937;-75
2024/02/25 05:03:40;;;;;;;78.30;37.70;;;3.60;8.60;;;;;;4429165;28;656984;-76
2024/02/25 05:06:27;;;;;;;82.03;37.27;;;3.60;18.80;;;;;;4424259;28;656672;-74
2024/02/25 05:09:16;;;;;;;79.67;35.73;;;3.60;24.10;;;;;;4420955;28;658434;-76
2024/02/25 05:12:04;;;;;;;76.33;35.40;;;3.60;31.30;;;;;;4402137;28;658113;-76
2024/02/25 05:14:51;;;;;;;78.53;35.73;;;3.50;35.20;;;;;;4419684;28;657019;-76
2024/02/25 05:17:39;;;;;;;85.13;36.60;;;3.60;43.90;;;;;;4404500;28;658062;-75
2024/02/25 05:20:26;;;;;;;83.87;36.60;;;3.50;36.90;;;;;;4410530;28;657759;-76
2024/02/25 05:23:14;;;;;;;75.83;33.70;;;3.50;41.50;;;;;;4397890;28;657404;-76
2024/02/25 05:26:03;;;;;;;73.53;33.13;;;3.40;38.00;;;;;;4420152;28;657427;-76
2024/02/25 05:28:50;;;;;;;76.87;33.20;;;3.40;40.30;;;;;;4388227;28;658021;-76
2024/02/25 05:31:37;;;;;;;71.70;32.73;;;3.30;40.90;;;;;;4400565;28;657932;-74
2024/02/25 05:34:25;;;;;;;72.90;31.10;;;3.30;29.90;;;;;;4413780;28;659054;-76
2024/02/25 05:37:15;;;;;;;71.17;32.53;;;3.30;43.30;;;;;;4411101;28;657225;-74
2024/02/25 05:40:03;;;;;;;75.93;34.63;;;3.40;54.80;;;;;;4409270;28;657774;-75
2024/02/25 05:42:51;;;;;;;74.23;33.87;;;3.50;45.30;;;;;;4415705;28;658214;-76
2024/02/25 05:45:39;;;;;;;74.37;32.67;;;3.40;36.10;;;;;;4393580;28;658163;-77
2024/02/25 05:48:26;;;;;;;70.10;32.63;;;3.30;28.50;;;;;;4415311;28;657456;-77
2024/02/25 05:51:13;;;;;;;66.63;31.23;;;3.30;22.40;;;;;;4395522;28;657972;-76
2024/02/25 05:54:01;;;;;;;68.40;30.40;;;3.20;10.00;;;;;;4417883;28;658315;-76
2024/02/25 05:56:48;;;;;;;62.60;28.00;;;3.20;19.70;;;;;;4400305;28;658602;-76
2024/02/25 05:59:37;;;;;;;59.70;26.80;;;3.20;6.30;;;;;;4414191;28;658265;-77
2024/02/25 06:02:24;;;;;;;55.20;25.37;;;3.20;9.80;;;;;;4401686;28;657190;-77
2024/02/25 06:05:14;;;;;;;50.47;23.53;;;3.40;10.30;;;;;;4421965;28;656788;-77
2024/02/25 06:08:01;;;;;;;45.00;22.37;;;3.40;11.90;;;;;;4383111;28;657904;-77
2024/02/25 06:10:49;;;;;;;49.63;23.93;;;3.50;1.00;;;;;;4411005;28;657804;-77
2024/02/25 06:13:36;;;;;;;57.33;24.43;;;3.50;1.00;;;;;;4426546;28;657250;-77
2024/02/25 06:16:32;;;;;;;51.43;23.33;;;3.40;1.00;;;;;;4402655;28;657057;-76
2024/02/25 06:19:19;;;;;;;48.80;23.73;;;3.40;1.00;;;;;;4378639;28;656529;-76
2024/02/25 06:22:07;;;;;;;53.20;23.07;;;3.30;1.00;;;;;;4419582;28;656810;-77
2024/02/25 06:24:54;;;;;;;57.43;24.77;;;3.40;1.00;;;;;;4417117;28;657451;-76
2024/02/25 06:27:41;;;;;;;56.10;24.23;;;3.50;1.00;;;;;;4412303;28;656789;-77
2024/02/25 06:30:28;;;;;;;58.43;25.97;;;3.60;1.00;;;;;;4391587;28;656606;-75
2024/02/25 06:33:17;;;;;;;54.20;24.80;;;3.70;1.00;;;;;;4425888;28;657224;-74
2024/02/25 06:36:06;;;;;;;56.53;27.47;;;3.80;1.00;;;;;;4410240;28;658251;-74
2024/02/25 06:38:53;;;;;;;56.50;27.33;;;4.00;1.00;;;;;;4412358;28;657260;-74
2024/02/25 06:41:40;;;;;;;65.63;30.60;;;4.20;1.00;;;;;;4423760;28;656978;-74
2024/02/25 06:44:28;;;;;;;66.70;30.17;;;4.40;1.00;;;;;;4415936;28;656857;-74
2024/02/25 06:47:15;;;;;;;64.57;29.27;;;4.60;99.90;;;;;;4421630;28;656385;-74
2024/02/25 06:50:05;;;;;;;59.73;29.40;;;4.80;99.90;;;;;;4406946;28;657775;-74
2024/02/25 06:52:52;;;;;;;62.70;28.03;;;5.00;1.00;;;;;;4424267;28;658356;-75
2024/02/25 06:55:39;;;;;;;53.20;25.83;;;5.20;99.90;;;;;;4396072;28;658226;-75
2024/02/25 06:58:26;;;;;;;50.65;25.05;;;5.50;1.00;;;;;;4424504;28;657815;-75
2024/02/25 07:01:14;;;;;;;47.27;23.57;;;5.70;99.90;;;;;;4396810;28;656929;-74
2024/02/25 07:04:01;;;;;;;44.23;22.00;;;5.90;1.00;;;;;;4427919;28;657462;-75
2024/02/25 07:06:50;;;;;;;42.47;20.40;;;6.10;1.00;;;;;;4408146;28;657482;-75
2024/02/25 07:09:39;;;;;;;44.23;20.07;;;6.30;1.00;;;;;;4414488;28;657341;-74
2024/02/25 07:12:26;;;;;;;42.27;18.63;;;6.40;99.90;;;;;;4428998;28;656532;-75
2024/02/25 07:15:13;;;;;;;42.77;19.67;;;6.50;7.70;;;;;;4397564;28;658228;-74
2024/02/25 07:18:00;;;;;;;37.53;18.70;;;6.70;1.00;;;;;;4424620;28;656612;-74
2024/02/25 07:20:48;;;;;;;39.17;18.30;;;6.90;1.00;;;;;;4402291;28;657121;-74
2024/02/25 07:23:40;;;;;;;37.03;18.47;;;6.90;1.00;;;;;;4413614;28;657328;-74
2024/02/25 07:26:27;;;;;;;33.73;16.50;;;7.10;99.90;;;;;;4407439;28;656817;-73
2024/02/25 07:29:15;;;;;;;36.60;17.90;;;7.20;10.90;;;;;;4409111;28;658742;-74
2024/02/25 07:32:02;;;;;;;44.57;21.50;;;7.30;1.00;;;;;;4403029;28;657927;-73
2024/02/25 07:34:50;;;;;;;41.03;20.47;;;7.40;1.00;;;;;;4409803;28;657705;-75
2024/02/25 07:37:37;;;;;;;40.70;20.60;;;7.50;99.90;;;;;;4426773;28;657150;-73
2024/02/25 07:40:26;;;;;;;42.10;20.20;;;7.60;1.00;;;;;;4416644;28;657748;-73
2024/02/25 07:43:13;;;;;;;39.57;19.63;;;7.70;99.90;;;;;;4383759;28;657345;-73
2024/02/25 07:46:01;;;;;;;39.03;18.93;;;7.80;5.40;;;;;;4410598;28;657991;-74
2024/02/25 07:48:48;;;;;;;35.23;17.00;;;8.00;99.90;;;;;;4375218;28;656459;-73
2024/02/25 07:51:35;;;;;;;29.73;15.57;;;8.00;61.20;;;;;;4402149;28;658311;-74
2024/02/25 07:54:22;;;;;;;29.67;15.20;;;8.20;82.00;;;;;;4388342;28;657856;-73
2024/02/25 07:57:11;;;;;;;30.10;13.23;;;8.50;1.00;;;;;;4413450;28;659028;-73
2024/02/25 07:59:59;;;;;;;23.90;11.47;;;8.60;1.00;;;;;;4397471;28;657565;-73
2024/02/25 08:02:46;;;;;;;21.30;10.90;;;8.80;1.00;;;;;;4425689;28;656648;-73
2024/02/25 08:05:33;;;;;;;22.77;9.90;;;9.00;99.90;;;;;;4399995;28;657040;-73
2024/02/25 08:08:20;;;;;;;19.13;8.57;;;9.30;1.00;;;;;;4426186;28;656959;-73
2024/02/25 08:11:07;;;;;;;19.83;8.20;;;9.50;99.90;;;;;;4413220;28;655357;-72
2024/02/25 08:13:56;;;;;;;14.43;7.43;;;9.70;99.90;;;;;;4422742;28;657428;-73
2024/02/25 08:16:43;;;;;;;15.57;7.40;;;9.90;1.00;;;;;;4409443;28;656567;-73
2024/02/25 08:19:30;;;;;;;16.63;7.68;;;10.10;1.00;;;;;;4417238;28;656432;-73
2024/02/25 08:22:19;;;;;;;16.37;8.03;;;10.30;1.00;;;;;;4406010;28;656451;-73
2024/02/25 08:25:06;;;;;;;20.43;9.80;;;10.30;1.00;;;;;;4420548;28;656805;-73
2024/02/25 08:27:54;;;;;;;19.80;7.87;;;10.50;99.90;;;;;;4407546;28;656591;-73
2024/02/25 08:30:42;;;;;;;18.17;8.70;;;10.60;1.00;;;;;;4429911;28;657727;-73
2024/02/25 08:33:30;;;;;;;16.90;7.57;;;10.80;99.90;;;;;;4410052;28;657229;-73
2024/02/25 08:36:17;;;;;;;16.77;7.97;;;10.80;1.00;;;;;;4419232;28;658495;-73
2024/02/25 08:39:05;;;;;;;17.17;7.70;;;10.90;1.00;;;;;;4421516;28;657525;-73
2024/02/25 08:41:52;;;;;;;15.10;6.73;;;11.00;1.00;;;;;;4407398;28;657037;-72
2024/02/25 08:44:40;;;;;;;12.20;6.40;;;11.10;1.00;;;;;;4429074;28;657314;-72
2024/02/25 08:47:29;;;;;;;13.00;7.40;;;11.10;99.90;;;;;;4419589;28;656372;-72
2024/02/25 08:50:16;;;;;;;15.10;5.33;;;11.30;99.90;;;;;;4421485;28;657692;-73
2024/02/25 08:53:04;;;;;;;22.50;8.93;;;11.60;1.00;;;;;;4404523;28;658575;-72
2024/02/25 08:55:52;;;;;;;16.43;7.60;;;11.50;99.90;;;;;;4424768;28;656836;-72
2024/02/25 08:58:40;;;;;;;15.93;7.47;;;11.60;99.90;;;;;;4404108;28;657806;-73
2024/02/25 09:01:27;;;;;;;17.33;8.53;;;11.50;99.90;;;;;;4425804;28;658183;-72
2024/02/25 09:04:16;;;;;;;22.07;9.90;;;11.10;1.00;;;;;;4411928;28;659216;-73
2024/02/25 09:07:04;;;;;;;21.67;10.90;;;11.30;99.90;;;;;;4417085;28;656719;-72
2024/02/25 09:09:51;;;;;;;20.00;9.57;;;11.60;1.00;;;;;;4422877;28;660347;-72
2024/02/25 09:12:38;;;;;;;26.00;11.93;;;11.80;99.90;;;;;;4394516;28;656337;-73
2024/02/25 09:15:26;;;;;;;22.27;10.93;;;11.70;99.90;;;;;;4421409;28;658610;-73
2024/02/25 09:18:14;;;;;;;27.47;13.20;;;12.20;99.90;;;;;;4404763;28;659873;-73
2024/02/25 09:21:02;;;;;;;26.33;12.77;;;12.50;99.90;;;;;;4422200;28;658653;-73
2024/02/25 09:23:50;;;;;;;27.27;13.17;;;12.40;99.90;;;;;;4402533;28;659093;-73
2024/02/25 09:26:37;;;;;;;27.80;13.20;;;12.60;1.00;;;;;;4426936;28;657902;-73
2024/02/25 09:29:24;;;;;;;29.53;13.27;;;13.00;1.00;;;;;;4398513;28;658005;-73
2024/02/25 09:32:11;;;;;;;25.77;12.50;;;13.40;99.90;;;;;;4416851;28;657640;-73
2024/02/25 09:34:58;;;;;;;31.90;14.23;;;13.80;1.00;;;;;;4404693;28;659956;-73
2024/02/25 09:37:47;;;;;;;29.10;13.73;;;14.00;99.90;;;;;;4421581;28;658139;-72
2024/02/25 09:40:34;;;;;;;31.47;16.23;;;14.40;1.00;;;;;;4382166;28;659200;-72
2024/02/25 09:43:23;;;;;;;31.60;14.63;;;13.70;1.00;;;;;;4418933;28;657100;-72
2024/02/25 09:46:10;;;;;;;28.13;13.87;;;13.20;99.90;;;;;;4392395;28;658432;-73
2024/02/25 09:48:57;;;;;;;25.07;13.60;;;13.20;1.00;;;;;;4394370;28;659177;-73
2024/02/25 09:51:47;;;;;;;34.23;13.03;;;13.30;1.00;;;;;;4416400;28;658871;-73
2024/02/25 09:54:36;;;;;;;25.93;12.27;;;13.70;1.00;;;;;;4380149;28;658547;-75
2024/02/25 09:57:23;;;;;;;21.40;9.20;;;14.00;99.90;;;;;;4303086;28;657678;-75
2024/02/25 10:00:11;;;;;;;19.67;9.20;;;14.20;99.90;;;;;;4324409;28;657246;-76
2024/02/25 10:02:58;;;;;;;25.23;10.07;;;13.80;99.90;;;;;;4303932;28;657488;-71
2024/02/25 10:05:45;;;;;;;25.73;8.90;;;14.10;99.90;;;;;;4333396;28;658258;-72
2024/02/25 10:08:45;;;;;;;15.97;7.30;;;14.80;99.90;;;;;;4364524;28;657156;-73
2024/02/25 10:11:34;;;;;;;13.07;6.87;;;15.60;99.90;;;;;;4393864;28;657745;-72
2024/02/25 10:14:21;;;;;;;15.53;7.30;;;16.00;22.70;;;;;;4396950;28;658019;-73
2024/02/25 10:17:10;;;;;;;13.93;7.33;;;16.30;76.80;;;;;;4398142;28;659429;-73
2024/02/25 10:19:57;;;;;;;17.07;7.97;;;16.60;8.30;;;;;;4414785;28;657066;-72
2024/02/25 10:22:44;;;;;;;14.27;7.40;;;16.60;13.90;;;;;;4399781;28;657719;-73
2024/02/25 10:25:32;;;;;;;15.40;7.70;;;15.80;1.00;;;;;;4414539;28;656888;-73
2024/02/25 10:28:21;;;;;;;13.00;6.63;;;15.50;99.90;;;;;;4408383;28;656854;-71
2024/02/25 10:31:10;;;;;;;13.93;6.83;;;16.10;1.00;;;;;;4334537;28;658182;-72
2024/02/25 10:33:58;;;;;;;15.50;7.67;;;15.80;13.80;;;;;;4309117;28;656457;-71
2024/02/25 10:36:45;;;;;;;17.60;8.00;;;15.60;13.30;;;;;;4401799;28;658295;-72
2024/02/25 10:39:33;;;;;;;13.53;6.50;;;15.70;13.60;;;;;;4415283;28;657159;-72
2024/02/25 10:42:22;;;;;;;15.30;6.27;;;15.90;1.00;;;;;;4424385;28;658612;-72
2024/02/25 10:45:11;;;;;;;11.90;5.73;;;15.40;1.00;;;;;;4322266;28;657359;-72
2024/02/25 10:47:59;;;;;;;20.50;9.60;;;15.10;13.50;;;;;;4302687;28;657216;-72
2024/02/25 10:50:46;;;;;;;15.23;8.10;;;14.80;59.60;;;;;;4414008;28;657885;-74
2024/02/25 10:53:33;;;;;;;16.37;7.63;;;15.50;78.10;;;;;;4403733;28;657823;-72
2024/02/25 10:56:21;;;;;;;11.00;5.43;;;15.50;51.20;;;;;;4416197;28;658162;-71
2024/02/25 10:59:09;;;;;;;52.23;15.23;;;15.30;8.00;;;;;;4395770;28;657082;-72
2024/02/25 11:02:00;;;;;;;12.60;5.97;;;15.80;1.00;;;;;;4421248;28;657448;-72
2024/02/25 11:04:47;;;;;;;14.50;6.27;;;16.50;1.00;;;;;;4379448;28;656643;-72
2024/02/25 11:07:36;;;;;;;14.03;7.07;;;16.60;1.00;;;;;;4423168;28;657906;-72
2024/02/25 11:10:23;;;;;;;11.40;5.57;;;16.70;1.00;;;;;;4404166;28;656761;-72
2024/02/25 11:13:11;;;;;;;11.90;5.67;;;16.60;1.00;;;;;;4415131;28;656677;-72
2024/02/25 11:16:03;;;;;;;12.50;5.83;;;16.20;1.00;;;;;;4392895;28;656940;-72
2024/02/25 11:18:52;;;;;;;11.53;5.53;;;16.30;1.00;;;;;;4397695;28;657251;-72
2024/02/25 11:21:39;;;;;;;10.07;4.87;;;16.00;1.00;;;;;;4406870;28;656523;-72
2024/02/25 11:24:45;;;;;;;10.17;5.20;;;16.30;1.00;;;;;;4422562;28;656030;-72
2024/02/25 11:27:56;;;;;;;8.70;4.50;;;16.70;1.00;;;;;;4420072;28;656401;-72
2024/02/25 11:30:44;;;;;;;5.83;3.27;;;16.60;1.00;;;;;;4375744;28;656167;-72
2024/02/25 11:33:39;;;;;;;7.47;3.90;;;16.70;1.00;;;;;;4418441;28;655687;-72
2024/02/25 11:36:27;;;;;;;7.87;3.77;;;16.50;1.00;;;;;;4400528;28;656036;-72
2024/02/25 11:39:15;;;;;;;9.27;4.07;;;15.80;1.00;;;;;;4404946;28;655664;-72
2024/02/25 11:42:02;;;;;;;8.27;4.10;;;15.80;1.00;;;;;;4416997;28;655629;-73
2024/02/25 11:44:50;;;;;;;10.60;4.33;;;16.30;1.00;;;;;;4403323;28;656635;-71
2024/02/25 11:47:38;;;;;;;11.83;4.90;;;16.50;1.00;;;;;;4327804;28;656292;-74
2024/02/25 11:50:26;;;;;;;8.53;3.93;;;16.00;1.00;;;;;;4391148;28;656798;-74
2024/02/25 11:53:15;;;;;;;11.73;4.60;;;16.20;1.00;;;;;;4398920;28;656028;-74
2024/02/25 11:56:03;;;;;;;9.77;3.53;;;15.90;1.00;;;;;;4394657;28;657403;-74
2024/02/25 11:58:51;;;;;;;2.77;1.40;;;15.50;1.00;;;;;;4415708;28;655967;-74
2024/02/25 12:01:38;;;;;;;9.20;3.37;;;14.60;1.00;;;;;;4391915;28;655277;-74
2024/02/25 12:04:25;;;;;;;6.20;3.40;;;14.50;1.00;;;;;;4427608;28;655455;-74
2024/02/25 12:07:12;;;;;;;8.00;3.30;;;14.40;1.00;;;;;;4395799;28;655628;-73
2024/02/25 12:10:01;;;;;;;7.80;3.33;;;14.40;1.00;;;;;;4408057;28;655386;-74
2024/02/25 12:12:48;;;;;;;6.50;3.30;;;14.60;1.00;;;;;;4362449;28;655895;-73
2024/02/25 12:15:38;;;;;;;6.07;1.93;;;14.00;1.00;;;;;;4413348;28;655419;-73
2024/02/25 12:18:26;;;;;;;5.17;2.10;;;14.00;1.00;;;;;;4387151;28;655676;-73
2024/02/25 12:21:13;;;;;;;4.00;2.03;;;13.90;1.00;;;;;;4392891;28;655933;-73
2024/02/25 12:24:02;;;;;;;5.17;1.20;;;13.80;1.00;;;;;;4415646;28;656818;-73
2024/02/25 12:26:52;;;;;;;5.07;1.00;;;13.60;1.00;;;;;;4392131;28;655912;-73
2024/02/25 12:29:39;;;;;;;5.47;1.53;;;13.60;1.00;;;;;;4392627;28;656353;-73
2024/02/25 12:32:27;;;;;;;10.63;1.07;;;13.50;1.00;;;;;;4413003;28;656180;-73
2024/02/25 12:35:15;;;;;;;2.40;0.80;;;13.40;1.00;;;;;;4394156;28;657482;-73
2024/02/25 12:38:03;;;;;;;2.27;1.00;;;13.50;1.00;;;;;;4374810;28;655740;-73
2024/02/25 12:40:54;;;;;;;0.80;0.37;;;13.50;1.00;;;;;;4412953;28;656094;-73
2024/02/25 12:43:44;;;;;;;3.40;1.20;;;13.60;1.00;;;;;;4392642;28;655818;-74
2024/02/25 12:46:33;;;;;;;4.40;1.20;;;13.50;1.00;;;;;;4404317;28;655811;-73
2024/02/25 12:49:20;;;;;;;3.93;1.13;;;13.60;1.00;;;;;;4400319;28;655677;-73
2024/02/25 12:52:08;;;;;;;3.23;1.20;;;13.70;1.00;;;;;;4407803;28;655421;-74
2024/02/25 12:54:55;;;;;;;3.10;1.17;;;13.60;1.00;;;;;;4410786;28;656671;-74
2024/02/25 12:57:42;;;;;;;2.20;0.97;;;13.60;1.00;;;;;;4398257;28;656297;-73
2024/02/25 13:00:31;;;;;;;2.30;1.13;;;13.50;1.00;;;;;;4418184;28;655833;-74
2024/02/25 13:03:18;;;;;;;2.53;1.00;;;13.40;1.00;;;;;;4392450;28;655939;-74
2024/02/25 13:06:07;;;;;;;4.27;0.83;;;13.60;1.00;;;;;;4417602;28;656265;-74
2024/02/25 13:08:54;;;;;;;3.33;1.20;;;13.50;1.00;;;;;;4408434;28;656070;-73
2024/02/25 13:11:41;;;;;;;3.70;0.97;;;13.30;1.00;;;;;;4371385;28;655197;-74
2024/02/25 13:14:29;;;;;;;3.57;1.27;;;13.50;1.00;;;;;;4381039;28;656080;-74
2024/02/25 13:17:17;;;;;;;2.73;0.70;;;13.40;1.00;;;;;;4413580;28;655880;-74
2024/02/25 13:20:08;;;;;;;3.13;1.10;;;13.30;1.00;;;;;;4395375;28;656216;-74
2024/02/25 13:22:55;;;;;;;2.17;1.10;;;13.40;1.00;;;;;;4387412;28;656427;-74
2024/02/25 13:25:42;;;;;;;3.37;0.90;;;13.20;1.00;;;;;;4410655;28;655643;-74
2024/02/25 13:28:30;;;;;;;3.80;1.10;;;13.30;1.00;;;;;;4430113;28;655671;-74
2024/02/25 13:31:18;;;;;;;2.23;1.10;;;13.30;1.00;;;;;;4419155;28;656047;-74
2024/02/25 13:34:06;;;;;;;2.40;1.20;;;13.30;1.00;;;;;;4415561;28;656001;-74
2024/02/25 13:36:53;;;;;;;4.60;0.93;;;13.20;1.00;;;;;;4389194;28;656271;-74
2024/02/25 13:39:42;;;;;;;3.80;1.10;;;13.10;1.00;;;;;;4417998;28;656023;-74
2024/02/25 13:42:29;;;;;;;5.33;1.20;;;13.30;1.00;;;;;;4390935;28;656586;-74
2024/02/25 13:45:16;;;;;;;6.20;1.30;;;13.40;1.00;;;;;;4429684;28;655053;-74
2024/02/25 13:48:05;;;;;;;5.73;1.07;;;13.40;1.00;;;;;;4386205;28;655341;-74
2024/02/25 13:50:54;;;;;;;3.50;1.00;;;13.30;1.00;;;;;;4412394;28;655544;-73
2024/02/25 13:53:41;;;;;;;4.00;1.30;;;13.30;1.00;;;;;;4407058;28;655974;-74
2024/02/25 13:56:28;;;;;;;3.60;1.40;;;13.30;1.00;;;;;;4397489;28;655092;-74
2024/02/25 13:59:16;;;;;;;2.70;1.23;;;13.30;1.00;;;;;;4411424;28;655752;-74
2024/02/25 14:02:03;;;;;;;2.60;1.30;;;13.30;1.00;;;;;;4386096;28;656271;-74
2024/02/25 14:04:51;;;;;;;3.20;1.40;;;13.30;1.00;;;;;;4418930;28;656242;-74
2024/02/25 14:07:40;;;;;;;3.20;1.37;;;13.30;1.00;;;;;;4391043;28;656419;-74
2024/02/25 14:10:28;;;;;;;4.03;1.40;;;13.30;1.00;;;;;;4395233;28;655442;-73
2024/02/25 14:13:15;;;;;;;3.43;1.30;;;13.20;1.00;;;;;;4433874;28;655782;-74
2024/02/25 14:16:04;;;;;;;5.53;1.40;;;13.20;1.00;;;;;;4391015;28;655526;-73
2024/02/25 14:18:51;;;;;;;3.50;1.43;;;13.10;1.00;;;;;;4419521;28;655629;-74
2024/02/25 14:21:39;;;;;;;3.50;1.70;;;13.00;1.00;;;;;;4395219;28;655839;-73